createdAt,value
2018-11-28T00:02:23.954Z,92.39
2018-11-28T00:04:52.889Z,93.05
2018-11-28T00:07:22.194Z,93.18
2018-11-28T00:09:51.603Z,92.93
2018-11-28T00:12:44.463Z,93.18
2018-11-28T00:15:17.456Z,92.77
2018-11-28T00:17:46.521Z,92.80
2018-11-28T00:20:34.995Z,92.35
2018-11-28T00:23:04.432Z,92.30
2018-11-28T00:25:33.368Z,92.40
2018-11-28T00:28:04.865Z,92.79
2018-11-28T00:30:53.362Z,92.85
2018-11-28T00:33:22.402Z,92.45
2018-11-28T00:35:51.417Z,92.06
2018-11-28T00:38:20.695Z,91.86
2018-11-28T00:46:07.341Z,92.27
2018-11-28T00:48:36.106Z,92.17
2018-11-28T00:51:04.791Z,92.04
2018-11-28T00:53:33.556Z,91.77
2018-11-28T00:56:21.540Z,91.87
2018-11-28T00:58:50.335Z,92.24
2018-11-28T01:01:38.284Z,91.86
2018-11-28T01:04:07.002Z,91.54
2018-11-28T01:06:35.812Z,91.56
2018-11-28T01:09:23.812Z,91.90
2018-11-28T01:11:52.618Z,92.23
2018-11-28T01:14:21.498Z,92.52
2018-11-28T01:17:09.504Z,92.09
2018-11-28T01:19:38.147Z,92.25
2018-11-28T01:22:06.845Z,91.14
2018-11-28T01:24:54.840Z,89.56
2018-11-28T01:27:23.500Z,89.05
2018-11-28T01:29:54.893Z,88.35
2018-11-28T01:32:45.820Z,88.61
2018-11-28T01:35:15.633Z,88.28
2018-11-28T01:37:44.485Z,87.84
2018-11-28T01:40:32.767Z,87.48
2018-11-28T01:43:20.751Z,87.17
2018-11-28T01:45:49.525Z,86.73
2018-11-28T01:48:37.524Z,87.13
2018-11-28T01:51:07.022Z,87.16
2018-11-28T01:53:35.591Z,86.94
2018-11-28T01:56:23.610Z,86.84
2018-11-28T01:58:52.301Z,86.84
2018-11-28T02:01:20.988Z,86.80
2018-11-28T02:04:08.972Z,85.55
2018-11-28T02:06:37.617Z,86.15
2018-11-28T02:09:09.012Z,86.10
2018-11-28T02:11:56.971Z,85.74
2018-11-28T02:14:25.691Z,86.49
2018-11-28T02:16:54.411Z,85.95
2018-11-28T02:19:42.407Z,86.36
2018-11-28T02:22:11.224Z,85.65
2018-11-28T02:24:39.865Z,85.37
2018-11-28T02:27:08.781Z,85.58
2018-11-28T02:29:37.495Z,85.02
2018-11-28T02:32:06.388Z,85.15
2018-11-28T02:34:54.403Z,85.22
2018-11-28T02:37:23.043Z,84.97
2018-11-28T02:39:51.723Z,85.77
2018-11-28T02:42:39.732Z,85.30
2018-11-28T02:45:27.723Z,84.77
2018-11-28T02:47:56.383Z,85.04
2018-11-28T02:50:44.633Z,84.90
2018-11-28T02:53:13.312Z,84.78
2018-11-28T02:55:42.092Z,84.66
2018-11-28T02:58:10.734Z,84.58
2018-11-28T03:00:58.732Z,84.12
2018-11-28T03:03:27.449Z,83.19
2018-11-28T03:05:56.240Z,83.49
2018-11-28T03:08:44.174Z,83.86
2018-11-28T03:11:12.918Z,83.89
2018-11-28T03:13:41.486Z,84.18
2018-11-28T03:16:29.457Z,83.77
2018-11-28T03:18:58.138Z,83.46
2018-11-28T03:21:26.901Z,83.35
2018-11-28T03:24:14.848Z,83.05
2018-11-28T03:26:43.631Z,83.18
2018-11-28T03:29:12.243Z,82.89
2018-11-28T03:32:00.280Z,82.79
2018-11-28T03:34:28.877Z,82.73
2018-11-28T03:36:57.588Z,83.33
2018-11-28T03:39:45.891Z,82.42
2018-11-28T03:42:15.010Z,82.83
2018-11-28T03:44:43.612Z,83.31
2018-11-28T03:47:12.282Z,82.21
2018-11-28T03:50:00.328Z,82.52
2018-11-28T03:52:29.069Z,82.36
2018-11-28T03:54:57.766Z,82.35
2018-11-28T03:57:46.294Z,82.78
2018-11-28T04:00:34.339Z,83.02
2018-11-28T04:03:03.109Z,83.25
2018-11-28T04:05:51.081Z,82.40
2018-11-28T04:08:21.849Z,82.99
2018-11-28T04:10:50.676Z,82.70
2018-11-28T04:13:38.646Z,82.38
2018-11-28T04:16:07.702Z,82.58
2018-11-28T04:19:24.547Z,81.92
2018-11-28T04:24:53.914Z,82.50
2018-11-28T04:27:41.952Z,82.81
2018-11-28T04:30:30.026Z,82.39
2018-11-28T04:32:58.658Z,82.70
2018-11-28T04:35:46.936Z,83.09
2018-11-28T04:38:15.673Z,83.48
2018-11-28T04:41:03.981Z,83.52
2018-11-28T04:43:32.662Z,83.39
2018-11-28T04:46:01.462Z,83.49
2018-11-28T04:48:30.101Z,83.24
2018-11-28T04:51:18.128Z,83.47
2018-11-28T04:53:46.826Z,83.25
2018-11-28T04:56:15.584Z,83.21
2018-11-28T04:59:03.567Z,83.56
2018-11-28T05:01:32.274Z,83.60
2018-11-28T05:04:01.042Z,83.85
2018-11-28T05:07:08.590Z,84.31
2018-11-28T05:09:37.424Z,84.33
2018-11-28T05:12:06.185Z,84.57
2018-11-28T05:14:54.461Z,84.51
2018-11-28T05:17:31.028Z,84.90
2018-11-28T05:19:59.760Z,85.22
2018-11-28T05:22:48.037Z,85.21
2018-11-28T05:25:29.376Z,85.41
2018-11-28T05:28:20.841Z,85.63
2018-11-28T05:30:49.558Z,85.61
2018-11-28T05:36:26.909Z,85.64
2018-11-28T05:38:57.387Z,86.05
2018-11-28T05:41:24.285Z,86.29
2018-11-28T05:44:12.271Z,86.24
2018-11-28T05:46:41.326Z,86.91
2018-11-28T05:49:15.026Z,86.57
2018-11-28T05:51:38.751Z,86.46
2018-11-28T05:54:07.522Z,86.49
2018-11-28T05:56:36.196Z,86.60
2018-11-28T05:59:04.939Z,86.25
2018-11-28T06:01:33.741Z,85.91
2018-11-28T06:06:50.148Z,86.01
2018-11-28T06:09:38.366Z,85.73
2018-11-28T06:12:07.227Z,85.58
2018-11-28T06:14:36.060Z,85.69
2018-11-28T06:17:04.723Z,85.67
2018-11-28T06:19:53.008Z,86.08
2018-11-28T06:22:21.740Z,85.74
2018-11-28T06:24:52.168Z,86.03
2018-11-28T06:27:40.496Z,85.89
2018-11-28T06:30:37.528Z,86.00
2018-11-28T06:33:06.601Z,85.93
2018-11-28T06:35:54.622Z,86.28
2018-11-28T06:38:42.587Z,86.15
2018-11-28T06:41:30.315Z,85.84
2018-11-28T06:43:59.015Z,85.72
2018-11-28T06:46:27.719Z,85.88
2018-11-28T06:48:56.430Z,86.07
2018-11-28T06:51:25.132Z,85.64
2018-11-28T06:53:54.042Z,85.64
2018-11-28T06:56:43.271Z,85.77
2018-11-28T06:59:10.743Z,85.34
2018-11-28T07:02:00.712Z,85.73
2018-11-28T07:04:49.030Z,85.55
2018-11-28T07:07:18.998Z,85.12
2018-11-28T07:09:47.686Z,84.94
2018-11-28T07:12:36.010Z,85.18
2018-11-28T07:15:04.819Z,85.45
2018-11-28T07:17:33.510Z,85.39
2018-11-28T07:20:23.287Z,85.26
2018-11-28T07:22:54.877Z,85.04
2018-11-28T07:25:25.682Z,85.18
2018-11-28T07:28:13.998Z,84.85
2018-11-28T07:30:42.723Z,84.91
2018-11-28T07:33:11.458Z,85.03
2018-11-28T07:35:40.906Z,85.25
2018-11-28T07:38:28.910Z,84.96
2018-11-28T07:40:57.609Z,84.79
2018-11-28T07:43:26.305Z,84.66
2018-11-28T07:46:14.561Z,84.92
2018-11-28T07:48:43.323Z,84.96
2018-11-28T07:51:14.100Z,84.94
2018-11-28T07:54:02.434Z,85.04
2018-11-28T07:56:31.164Z,85.33
2018-11-28T07:58:59.783Z,85.08
2018-11-28T08:01:28.449Z,85.26
2018-11-28T08:04:16.754Z,85.46
2018-11-28T08:06:45.717Z,85.53
2018-11-28T08:09:14.347Z,84.84
2018-11-28T08:11:43.074Z,85.09
2018-11-28T08:14:31.344Z,85.30
2018-11-28T08:17:00.106Z,84.84
2018-11-28T08:22:36.259Z,83.87
2018-11-28T08:25:04.748Z,84.44
2018-11-28T08:27:33.209Z,83.67
2018-11-28T08:30:40.718Z,83.85
2018-11-28T08:33:30.798Z,83.53
2018-11-28T08:35:59.563Z,83.98
2018-11-28T08:38:47.886Z,83.35
2018-11-28T08:41:19.264Z,83.78
2018-11-28T08:46:48.117Z,83.03
2018-11-28T08:49:16.892Z,83.55
2018-11-28T08:51:46.087Z,82.36
2018-11-28T08:54:34.350Z,81.80
2018-11-28T08:57:03.017Z,81.30
2018-11-28T08:59:31.728Z,79.98
2018-11-28T09:02:02.921Z,81.56
2018-11-28T09:04:51.829Z,81.06
2018-11-28T09:07:20.486Z,79.96
2018-11-28T09:09:49.831Z,79.30
2018-11-28T09:12:17.790Z,80.29
2018-11-28T09:15:34.974Z,78.11
2018-11-28T09:18:22.970Z,78.22
2018-11-28T09:21:29.928Z,78.95
2018-11-28T09:23:58.569Z,77.95
2018-11-28T09:26:27.261Z,77.49
2018-11-28T09:29:15.578Z,77.14
2018-11-28T09:31:45.753Z,76.18
2018-11-28T09:34:14.394Z,75.23
2018-11-28T09:36:43.087Z,75.46
2018-11-28T09:39:31.385Z,75.16
2018-11-28T09:42:00.159Z,74.84
2018-11-28T09:44:28.880Z,74.65
2018-11-28T09:46:59.847Z,74.49
2018-11-28T09:49:48.094Z,73.43
2018-11-28T09:52:16.808Z,72.10
2018-11-28T09:54:45.515Z,73.62
2018-11-28T09:57:14.160Z,71.20
2018-11-28T10:00:02.467Z,71.53
2018-11-28T10:02:31.235Z,71.45
2018-11-28T10:08:01.554Z,71.55
2018-11-28T10:10:31.065Z,72.05
2018-11-28T10:12:59.716Z,71.54
2018-11-28T10:18:54.618Z,70.57
2018-11-28T10:21:23.332Z,70.29
2018-11-28T10:24:11.627Z,69.84
2018-11-28T10:26:40.330Z,69.79
2018-11-28T10:29:09.004Z,67.70
2018-11-28T10:31:39.924Z,67.76
2018-11-28T10:34:29.616Z,67.88
2018-11-28T10:39:47.154Z,67.16
2018-11-28T10:42:35.111Z,66.40
2018-11-28T10:45:03.853Z,67.31
2018-11-28T10:47:34.562Z,65.81
2018-11-28T10:50:22.831Z,65.11
2018-11-28T10:52:51.543Z,65.94
2018-11-28T10:55:40.913Z,63.52
2018-11-28T10:58:09.600Z,63.14
2018-11-28T11:00:57.585Z,63.73
2018-11-28T11:03:45.248Z,64.12
2018-11-28T11:09:52.128Z,62.88
2018-11-28T11:12:39.747Z,62.33
2018-11-28T11:15:14.767Z,64.04
2018-11-28T11:18:10.518Z,61.83
2018-11-28T11:20:34.759Z,61.94
2018-11-28T11:23:23.094Z,61.19
2018-11-28T11:25:52.178Z,62.32
2018-11-28T11:28:20.830Z,60.84
2018-11-28T11:30:49.600Z,60.42
2018-11-28T11:33:37.890Z,60.97
2018-11-28T11:36:25.907Z,60.30
2018-11-28T11:38:54.540Z,60.69
2018-11-28T11:41:42.553Z,60.76
2018-11-28T11:44:11.214Z,60.15
2018-11-28T11:46:39.860Z,61.07
2018-11-28T11:49:28.348Z,59.84
2018-11-28T11:51:56.784Z,60.45
2018-11-28T11:54:25.469Z,60.89
2018-11-28T11:56:54.120Z,60.96
2018-11-28T11:59:42.076Z,61.93
2018-11-28T12:08:48.769Z,61.51
2018-11-28T12:11:19.808Z,61.26
2018-11-28T12:14:08.042Z,61.90
2018-11-28T12:16:37.128Z,60.71
2018-11-28T12:19:06.513Z,62.09
2018-11-28T12:21:35.145Z,62.07
2018-11-28T12:24:23.389Z,61.38
2018-11-28T12:26:52.161Z,61.14
2018-11-28T12:29:20.769Z,62.86
2018-11-28T12:31:50.902Z,62.66
2018-11-28T12:34:39.150Z,61.91
2018-11-28T12:37:07.934Z,62.53
2018-11-28T12:39:36.553Z,62.53
2018-11-28T12:42:05.248Z,63.64
2018-11-28T12:44:53.235Z,63.10
2018-11-28T12:47:22.018Z,63.45
2018-11-28T12:52:50.618Z,63.39
2018-11-28T12:55:19.945Z,63.06
2018-11-28T12:57:48.651Z,63.89
2018-11-28T13:00:55.960Z,63.73
2018-11-28T13:03:24.699Z,65.17
2018-11-28T13:06:12.909Z,65.18
2018-11-28T13:08:41.902Z,65.12
2018-11-28T13:11:10.579Z,64.99
2018-11-28T13:13:41.585Z,65.08
2018-11-28T13:16:29.528Z,65.60
2018-11-28T13:18:58.275Z,64.45
2018-11-28T13:21:28.962Z,65.30
2018-11-28T13:24:14.376Z,65.73
2018-11-28T13:26:41.794Z,66.57
2018-11-28T13:29:10.423Z,66.49
2018-11-28T13:31:39.118Z,66.66
2018-11-28T13:34:28.443Z,67.21
2018-11-28T13:43:45.574Z,67.71
2018-11-28T13:46:14.699Z,67.35
2018-11-28T13:49:02.707Z,67.57
2018-11-28T13:51:31.399Z,67.15
2018-11-28T13:54:00.024Z,67.24
2018-11-28T13:57:05.019Z,67.27
2018-11-28T13:59:16.928Z,67.55
2018-11-28T14:01:45.633Z,67.44
2018-11-28T14:04:14.267Z,66.89
2018-11-28T14:07:02.282Z,66.69
2018-11-28T14:09:30.977Z,66.91
2018-11-28T14:12:18.977Z,67.04
2018-11-28T14:14:49.992Z,67.13
2018-11-28T14:17:18.651Z,67.12
2018-11-28T14:20:07.806Z,66.77
2018-11-28T14:22:36.477Z,66.73
2018-11-28T14:25:05.216Z,67.21
2018-11-28T14:27:53.195Z,66.85
2018-11-28T14:30:22.928Z,66.26
2018-11-28T14:32:52.125Z,66.13
2018-11-28T14:35:40.102Z,66.28
2018-11-28T14:38:28.077Z,66.25
2018-11-28T14:41:16.374Z,66.20
2018-11-28T14:44:04.071Z,66.24
2018-11-28T14:46:52.003Z,66.40
2018-11-28T14:49:20.702Z,66.44
2018-11-28T14:51:49.379Z,66.75
2018-11-28T14:54:37.415Z,66.87
2018-11-28T14:57:06.969Z,67.08
2018-11-28T14:59:56.663Z,67.34
2018-11-28T15:02:25.298Z,67.83
2018-11-28T15:04:53.894Z,67.81
2018-11-28T15:07:41.878Z,68.00
2018-11-28T15:10:11.191Z,68.41
2018-11-28T15:12:59.178Z,68.33
2018-11-28T15:15:29.269Z,68.48
2018-11-28T15:17:56.655Z,68.71
2018-11-28T15:20:47.323Z,68.93
2018-11-28T15:23:16.004Z,68.89
2018-11-28T15:25:44.990Z,68.00
2018-11-28T15:28:33.173Z,68.12
2018-11-28T15:31:01.848Z,67.93
2018-11-28T15:33:33.246Z,67.97
2018-11-28T15:36:04.426Z,68.16
2018-11-28T15:38:55.123Z,68.32
2018-11-28T15:41:23.816Z,68.59
2018-11-28T15:43:54.634Z,68.56
2018-11-28T15:46:23.325Z,68.60
2018-11-28T15:49:16.028Z,68.72
2018-11-28T15:51:56.870Z,69.43
2018-11-28T15:54:26.638Z,69.72
2018-11-28T15:57:16.128Z,70.52
2018-11-28T15:59:47.758Z,71.41
2018-11-28T16:02:36.025Z,72.25
2018-11-28T16:05:05.472Z,72.27
2018-11-28T16:07:34.121Z,72.51
2018-11-28T16:10:41.294Z,72.29
2018-11-28T16:13:10.110Z,72.67
2018-11-28T16:15:59.049Z,72.65
2018-11-28T16:21:15.418Z,73.41
2018-11-28T16:24:03.379Z,73.30
2018-11-28T16:26:32.089Z,72.96
2018-11-28T16:29:00.808Z,73.30
2018-11-28T16:31:48.760Z,72.89
2018-11-28T16:34:19.524Z,72.65
2018-11-28T16:36:48.236Z,73.04
2018-11-28T16:42:28.677Z,73.03
2018-11-28T16:44:57.360Z,73.02
2018-11-28T16:48:04.699Z,73.31
2018-11-28T16:50:35.151Z,73.50
2018-11-28T16:53:23.150Z,73.80
2018-11-28T16:55:54.049Z,74.31
2018-11-28T16:58:22.639Z,74.24
2018-11-28T17:01:15.921Z,74.31
2018-11-28T17:06:32.382Z,75.78
2018-11-28T17:09:20.386Z,75.44
2018-11-28T17:12:41.605Z,75.23
2018-11-28T17:15:55.912Z,75.01
2018-11-28T17:18:25.013Z,75.25
2018-11-28T17:20:53.688Z,74.90
2018-11-28T17:23:41.972Z,75.04
2018-11-28T17:26:10.609Z,75.20
2018-11-28T17:28:39.286Z,75.25
2018-11-28T17:31:12.410Z,75.27
2018-11-28T17:34:01.066Z,75.37
2018-11-28T17:36:29.750Z,75.51
2018-11-28T17:39:00.956Z,75.67
2018-11-28T17:41:49.200Z,75.88
2018-11-28T17:47:05.667Z,76.64
2018-11-28T17:49:53.697Z,77.17
2018-11-28T17:52:22.490Z,77.54
2018-11-28T17:54:51.100Z,77.42
2018-11-28T17:57:39.408Z,78.46
2018-11-28T18:00:12.360Z,78.10
2018-11-28T18:02:41.307Z,77.83
2018-11-28T18:05:10.837Z,77.87
2018-11-28T18:08:18.325Z,77.75
2018-11-28T18:10:46.976Z,77.73
2018-11-28T18:13:16.841Z,77.34
2018-11-28T18:16:05.093Z,77.24
2018-11-28T18:18:33.807Z,77.34
2018-11-28T18:21:02.512Z,77.34
2018-11-28T18:23:31.233Z,77.42
2018-11-28T18:26:21.631Z,76.96
2018-11-28T18:28:50.340Z,77.52
2018-11-28T18:31:38.536Z,77.44
2018-11-28T18:34:07.315Z,77.45
2018-11-28T18:36:36.006Z,77.24
2018-11-28T18:39:05.524Z,77.02
2018-11-28T18:41:53.799Z,76.85
2018-11-28T18:44:22.501Z,76.83
2018-11-28T18:46:51.121Z,76.76
2018-11-28T18:49:19.803Z,76.56
2018-11-28T18:54:58.698Z,76.65
2018-11-28T18:57:27.363Z,76.66
2018-11-28T19:00:36.712Z,76.48
2018-11-28T19:03:07.870Z,76.34
2018-11-28T19:05:36.836Z,76.56
2018-11-28T19:08:05.738Z,76.44
2018-11-28T19:10:54.046Z,76.14
2018-11-28T19:13:22.960Z,76.33
2018-11-28T19:15:51.674Z,76.24
2018-11-28T19:18:39.926Z,76.04
2018-11-28T19:21:09.751Z,76.25
2018-11-28T19:23:37.341Z,76.26
2018-11-28T19:26:08.492Z,76.28
2018-11-28T19:28:56.783Z,76.33
2018-11-28T19:31:25.450Z,76.08
2018-11-28T19:33:54.052Z,76.54
2018-11-28T19:36:22.717Z,76.28
2018-11-28T19:39:10.997Z,76.48
2018-11-28T19:41:39.644Z,75.90
2018-11-28T19:44:08.351Z,75.80
2018-11-28T19:46:58.637Z,75.87
2018-11-28T19:49:27.372Z,75.35
2018-11-28T19:51:56.021Z,75.01
2018-11-28T19:54:44.308Z,75.04
2018-11-28T19:57:12.950Z,75.19
2018-11-28T19:59:43.692Z,74.58
2018-11-28T20:02:12.334Z,74.42
2018-11-28T20:05:00.599Z,74.61
2018-11-28T20:07:29.362Z,74.64
2018-11-28T20:10:17.278Z,74.73
2018-11-28T20:12:46.035Z,74.63
2018-11-28T20:15:34.352Z,74.65
2018-11-28T20:18:03.025Z,74.55
2018-11-28T20:20:31.640Z,74.36
2018-11-28T20:23:02.161Z,74.11
2018-11-28T20:25:48.610Z,73.94
2018-11-28T20:28:17.276Z,73.76
2018-11-28T20:30:49.188Z,73.76
2018-11-28T20:33:18.350Z,73.85
2018-11-28T20:36:06.650Z,73.90
2018-11-28T20:38:54.669Z,73.96
2018-11-28T20:41:23.506Z,74.35
2018-11-28T20:44:11.614Z,74.13
2018-11-28T20:46:40.326Z,74.03
2018-11-28T20:49:28.242Z,73.94
2018-11-28T20:51:58.776Z,73.85
2018-11-28T20:54:29.600Z,73.36
2018-11-28T20:56:58.195Z,73.17
2018-11-28T20:59:46.489Z,73.72
2018-11-28T21:02:15.180Z,73.60
2018-11-28T21:04:52.559Z,73.66
2018-11-28T21:07:21.475Z,73.43
2018-11-28T21:10:29.369Z,73.69
2018-11-28T21:12:58.054Z,74.17
2018-11-28T21:15:26.656Z,74.10
2018-11-28T21:18:14.986Z,74.34
2018-11-28T21:20:45.079Z,74.44
2018-11-28T21:23:18.307Z,74.58
2018-11-28T21:26:13.065Z,74.67
2018-11-28T21:28:41.764Z,74.41
2018-11-28T21:31:10.465Z,74.73
2018-11-28T21:34:05.384Z,74.89
2018-11-28T21:36:32.893Z,74.36
2018-11-28T21:39:04.987Z,74.15
2018-11-28T21:41:53.288Z,74.26
2018-11-28T21:47:09.597Z,74.49
2018-11-28T21:49:57.865Z,74.53
2018-11-28T21:55:36.126Z,74.39
2018-11-28T21:58:04.834Z,74.25
2018-11-28T22:00:33.606Z,74.00
2018-11-28T22:03:02.195Z,74.45
2018-11-28T22:05:43.448Z,74.75
2018-11-28T22:08:23.875Z,74.85
2018-11-28T22:10:55.384Z,74.72
2018-11-28T22:13:24.012Z,74.84
2018-11-28T22:16:12.232Z,74.75
2018-11-28T22:18:40.943Z,74.21
2018-11-28T22:21:12.332Z,74.19
2018-11-28T22:23:41.019Z,74.20
2018-11-28T22:26:29.304Z,74.04
2018-11-28T22:29:00.218Z,74.08
2018-11-28T22:31:28.894Z,74.30
2018-11-28T22:33:57.572Z,74.51
2018-11-28T22:36:45.855Z,74.60
2018-11-28T22:39:14.572Z,74.72
2018-11-28T22:41:44.028Z,74.20
2018-11-28T22:44:12.644Z,74.01
2018-11-28T22:47:00.884Z,73.84
2018-11-28T22:49:29.571Z,73.42
2018-11-28T22:51:58.623Z,73.34
2018-11-28T22:54:53.643Z,73.23
2018-11-28T22:57:22.316Z,73.33
2018-11-28T22:59:55.851Z,73.33
2018-11-28T23:03:22.144Z,72.79
2018-11-28T23:05:52.001Z,72.74
2018-11-28T23:08:39.997Z,72.83
2018-11-28T23:11:08.659Z,72.66
2018-11-28T23:16:44.218Z,71.87
2018-11-28T23:19:12.900Z,71.83
2018-11-28T23:22:00.853Z,71.54
2018-11-28T23:24:29.531Z,71.72
2018-11-28T23:27:17.483Z,70.97
2018-11-28T23:29:46.271Z,70.97
2018-11-28T23:32:14.959Z,71.59
2018-11-28T23:35:22.199Z,72.02
2018-11-28T23:37:51.035Z,71.90
2018-11-28T23:40:20.462Z,71.82
2018-11-28T23:43:08.438Z,71.56
2018-11-28T23:45:37.159Z,71.20
2018-11-28T23:48:05.996Z,70.91
2018-11-28T23:50:34.668Z,70.13
2018-11-28T23:53:03.374Z,70.29
2018-11-28T23:55:32.441Z,70.10
2018-11-28T23:58:20.828Z,69.58
